Time;durP1;ratioP1;P1;durP2;ratioP2;P2;SDS_P1;SDS_P2;PMS_P1;PMS_P2;Temp;Humidity;BMP_temperature;BMP_pressure;BME280_temperature;BME280_humidity;BME280_pressure;Samples;Min_cycle;Max_cycle;Signal;HPM_P1;HPM_P2
2023/05/29 02:01:06;;;;;;;6.05;2.12;;;;;;;;;;4787366;27;20064;-74
2023/05/29 02:03:33;;;;;;;11.43;2.20;;;;;;;;;;4296404;33;20348;-74
2023/05/29 02:06:00;;;;;;;10.13;1.92;;;;;;;;;;4294799;33;20029;-74
2023/05/29 02:08:26;;;;;;;13.02;2.33;;;;;;;;;;4293996;33;20386;-71
2023/05/29 02:10:53;;;;;;;11.52;2.67;;;;;;;;;;4295657;33;20141;-74
2023/05/29 02:13:20;;;;;;;18.52;2.60;;;;;;;;;;4296037;33;20048;-74
2023/05/29 02:15:46;;;;;;;7.87;2.20;;;;;;;;;;4280140;33;20052;-74
2023/05/29 02:18:14;;;;;;;12.77;3.45;;;;;;;;;;4281624;33;20071;-73
2023/05/29 02:20:40;;;;;;;11.40;2.40;;;;;;;;;;4279311;33;20038;-74
2023/05/29 02:23:09;;;;;;;15.68;2.83;;;;;;;;;;4280314;33;20396;-74
2023/05/29 02:25:35;;;;;;;18.27;2.97;;;;;;;;;;4281540;33;20053;-74
2023/05/29 02:28:02;;;;;;;29.75;4.00;;;;;;;;;;4281008;33;20067;-74
2023/05/29 02:30:28;;;;;;;28.60;2.80;;;;;;;;;;4280003;33;20073;-71
2023/05/29 02:32:55;;;;;;;30.77;3.00;;;;;;;;;;4280723;33;20061;-74
2023/05/29 02:35:22;;;;;;;20.40;3.40;;;;;;;;;;4281346;33;20060;-74
2023/05/29 02:37:49;;;;;;;31.25;3.75;;;;;;;;;;4281033;33;20169;-74
2023/05/29 02:40:16;;;;;;;51.60;2.72;;;;;;;;;;4281308;33;20041;-74
2023/05/29 02:42:42;;;;;;;24.30;3.00;;;;;;;;;;4278862;33;20357;-74
2023/05/29 02:45:08;;;;;;;28.25;4.37;;;;;;;;;;4281177;33;20099;-74
2023/05/29 02:47:35;;;;;;;33.80;4.90;;;;;;;;;;4279613;33;20057;-74
2023/05/29 02:50:02;;;;;;;22.55;3.35;;;;;;;;;;4281034;33;20439;-75
2023/05/29 02:52:30;;;;;;;44.60;3.15;;;;;;;;;;4280982;33;20041;-75
2023/05/29 02:54:56;;;;;;;15.00;2.65;;;;;;;;;;4279540;33;20030;-75
2023/05/29 02:57:22;;;;;;;16.08;2.70;;;;;;;;;;4279570;33;20384;-75
2023/05/29 02:59:48;;;;;;;15.23;2.20;;;;;;;;;;4280711;33;20068;-75
2023/05/29 03:02:21;;;;;;;19.90;3.42;;;;;;;;;;4278250;33;20045;-73
2023/05/29 03:04:52;;;;;;;12.55;2.58;;;;;;;;;;4280604;33;20441;-75
2023/05/29 03:07:19;;;;;;;8.00;2.80;;;;;;;;;;4280958;33;20067;-76
2023/05/29 03:09:45;;;;;;;20.23;3.05;;;;;;;;;;4280772;33;20067;-74
2023/05/29 03:12:12;;;;;;;34.35;5.15;;;;;;;;;;4279444;33;20053;-74
2023/05/29 03:14:38;;;;;;;41.55;4.95;;;;;;;;;;4278907;33;20092;-72
2023/05/29 03:17:06;;;;;;;33.85;3.97;;;;;;;;;;4266715;33;20053;-73
2023/05/29 03:19:33;;;;;;;13.52;3.67;;;;;;;;;;4266655;33;20478;-74
2023/05/29 03:21:59;;;;;;;34.42;5.18;;;;;;;;;;4266782;33;20052;-75
2023/05/29 03:24:25;;;;;;;28.62;5.60;;;;;;;;;;4266618;33;20053;-75
2023/05/29 03:26:51;;;;;;;35.80;3.95;;;;;;;;;;4264445;33;20437;-75
2023/05/29 03:29:18;;;;;;;36.45;4.90;;;;;;;;;;4266283;33;20115;-74
2023/05/29 03:31:44;;;;;;;48.97;6.87;;;;;;;;;;4266002;33;20045;-75
2023/05/29 03:34:11;;;;;;;24.60;3.95;;;;;;;;;;4266483;33;20050;-75
2023/05/29 03:36:38;;;;;;;26.98;4.37;;;;;;;;;;4265990;33;20124;-74
2023/05/29 03:39:04;;;;;;;8.70;2.92;;;;;;;;;;4264775;33;20042;-74
2023/05/29 03:41:31;;;;;;;16.83;3.55;;;;;;;;;;4266667;33;20057;-76
2023/05/29 03:43:58;;;;;;;18.70;4.55;;;;;;;;;;4292085;33;20072;-75
2023/05/29 03:46:24;;;;;;;18.77;3.12;;;;;;;;;;4266204;33;20083;-75
2023/05/29 03:48:50;;;;;;;21.95;3.40;;;;;;;;;;4262549;33;20034;-72
2023/05/29 03:51:17;;;;;;;20.60;4.68;;;;;;;;;;4254156;33;20048;-75
2023/05/29 03:53:44;;;;;;;25.85;5.03;;;;;;;;;;4256494;33;20042;-75
2023/05/29 03:56:10;;;;;;;29.77;4.50;;;;;;;;;;4268098;33;20041;-75
2023/05/29 03:58:36;;;;;;;18.27;4.32;;;;;;;;;;4269215;33;20059;-76
2023/05/29 04:01:03;;;;;;;22.90;5.82;;;;;;;;;;4267390;33;20075;-73
2023/05/29 04:03:29;;;;;;;25.92;3.08;;;;;;;;;;4269014;33;20297;-75
2023/05/29 04:05:56;;;;;;;33.50;5.10;;;;;;;;;;4258571;33;20393;-74
2023/05/29 04:08:21;;;;;;;18.73;3.20;;;;;;;;;;4225084;34;20086;-74
2023/05/29 04:10:48;;;;;;;20.67;3.80;;;;;;;;;;4219174;33;20054;-75
2023/05/29 04:13:14;;;;;;;21.70;2.67;;;;;;;;;;4211156;34;20354;-75
2023/05/29 04:15:41;;;;;;;26.52;3.28;;;;;;;;;;4226078;34;20084;-77
2023/05/29 04:18:08;;;;;;;9.63;3.33;;;;;;;;;;4203952;34;20090;-75
2023/05/29 04:20:34;;;;;;;19.60;3.15;;;;;;;;;;4235257;33;20050;-74
2023/05/29 04:23:00;;;;;;;14.63;3.47;;;;;;;;;;4238494;33;20026;-71
2023/05/29 04:25:27;;;;;;;17.00;3.42;;;;;;;;;;4240974;33;20050;-74
2023/05/29 04:27:53;;;;;;;23.48;3.28;;;;;;;;;;4239751;33;20056;-74
2023/05/29 04:30:19;;;;;;;18.00;3.75;;;;;;;;;;4240864;33;20067;-75
2023/05/29 04:32:46;;;;;;;8.13;2.55;;;;;;;;;;4240044;33;20106;-75
2023/05/29 04:35:13;;;;;;;10.68;3.80;;;;;;;;;;4238810;33;20058;-73
2023/05/29 04:37:40;;;;;;;24.08;3.40;;;;;;;;;;4239977;33;20741;-74
2023/05/29 04:40:09;;;;;;;14.98;3.80;;;;;;;;;;4250304;33;20100;-75
2023/05/29 04:42:35;;;;;;;15.65;3.78;;;;;;;;;;4254922;33;20426;-76
2023/05/29 04:45:03;;;;;;;19.58;3.45;;;;;;;;;;4242678;33;20441;-74
2023/05/29 04:47:32;;;;;;;16.90;3.35;;;;;;;;;;4239005;33;20101;-74
2023/05/29 04:49:59;;;;;;;13.30;2.97;;;;;;;;;;4263483;33;20053;-74
2023/05/29 04:52:26;;;;;;;14.43;3.15;;;;;;;;;;4285477;33;20234;-74
2023/05/29 04:54:56;;;;;;;18.67;3.30;;;;;;;;;;4280906;33;20450;-73
2023/05/29 04:57:22;;;;;;;3.83;2.25;;;;;;;;;;4284061;33;20067;-75
2023/05/29 04:59:49;;;;;;;12.23;2.45;;;;;;;;;;4288679;33;20052;-74
2023/05/29 05:02:15;;;;;;;11.25;2.37;;;;;;;;;;4283283;33;20444;-74
2023/05/29 05:04:42;;;;;;;4.47;2.15;;;;;;;;;;4281896;33;20061;-74
2023/05/29 05:07:09;;;;;;;9.55;2.53;;;;;;;;;;4280709;33;20033;-71
2023/05/29 05:09:35;;;;;;;5.80;2.25;;;;;;;;;;4282584;33;20057;-73
2023/05/29 05:12:02;;;;;;;4.50;2.00;;;;;;;;;;4281942;33;20045;-74
2023/05/29 05:14:35;;;;;;;4.78;1.90;;;;;;;;;;4280800;33;20053;-74
2023/05/29 05:17:02;;;;;;;9.60;2.58;;;;;;;;;;4280623;33;20625;-75
2023/05/29 05:19:28;;;;;;;17.00;2.90;;;;;;;;;;4297097;33;20809;-74
2023/05/29 05:21:55;;;;;;;6.72;2.10;;;;;;;;;;4303535;33;20045;-73
2023/05/29 05:24:22;;;;;;;4.18;2.20;;;;;;;;;;4296577;33;20494;-72
2023/05/29 05:26:48;;;;;;;5.55;2.12;;;;;;;;;;4296294;33;20407;-72
2023/05/29 05:29:14;;;;;;;7.85;1.75;;;;;;;;;;4293565;33;20070;-73
2023/05/29 05:31:41;;;;;;;6.03;2.03;;;;;;;;;;4295726;33;20455;-73
2023/05/29 05:34:08;;;;;;;7.55;2.62;;;;;;;;;;4295472;33;20033;-75
2023/05/29 05:36:34;;;;;;;4.12;1.85;;;;;;;;;;4290010;33;20093;-74
2023/05/29 05:39:05;;;;;;;3.17;1.62;;;;;;;;;;4297762;33;20048;-70
2023/05/29 05:41:31;;;;;;;4.93;1.50;;;;;;;;;;4294916;33;20079;-72
2023/05/29 05:43:57;;;;;;;4.40;1.45;;;;;;;;;;4297964;33;20065;-72
2023/05/29 05:46:24;;;;;;;3.10;1.52;;;;;;;;;;4296291;33;20062;-71
2023/05/29 05:48:51;;;;;;;5.72;1.60;;;;;;;;;;4295312;33;20075;-73
2023/05/29 05:51:17;;;;;;;7.95;2.12;;;;;;;;;;4293273;33;20110;-73
2023/05/29 05:53:45;;;;;;;3.45;1.52;;;;;;;;;;4295012;33;20091;-76
2023/05/29 05:56:10;;;;;;;11.68;1.90;;;;;;;;;;4282902;33;20041;-73
2023/05/29 05:58:37;;;;;;;5.28;2.17;;;;;;;;;;4280709;33;20099;-77
2023/05/29 06:01:03;;;;;;;12.57;3.08;;;;;;;;;;4285327;33;20091;-74
2023/05/29 06:03:32;;;;;;;19.17;1.85;;;;;;;;;;4280821;33;20105;-74
2023/05/29 06:06:00;;;;;;;7.35;1.90;;;;;;;;;;4281846;33;20590;-73
2023/05/29 06:08:27;;;;;;;6.60;2.00;;;;;;;;;;4282354;33;20053;-75
2023/05/29 06:10:53;;;;;;;12.77;1.77;;;;;;;;;;4281972;33;20079;-75
2023/05/29 06:13:19;;;;;;;5.45;1.40;;;;;;;;;;4279938;33;20128;-73
2023/05/29 06:15:46;;;;;;;14.32;1.75;;;;;;;;;;4279840;33;20071;-74
2023/05/29 06:18:14;;;;;;;3.50;1.37;;;;;;;;;;4273631;33;20061;-74
2023/05/29 06:20:41;;;;;;;5.25;1.65;;;;;;;;;;4269630;33;20105;-75
2023/05/29 06:23:07;;;;;;;2.95;1.60;;;;;;;;;;4279109;33;20436;-71
2023/05/29 06:25:34;;;;;;;4.12;1.83;;;;;;;;;;4278246;33;20041;-83
2023/05/29 06:28:00;;;;;;;3.22;2.12;;;;;;;;;;4279824;33;20056;-77
2023/05/29 06:30:26;;;;;;;3.97;1.50;;;;;;;;;;4279502;33;20356;-75
2023/05/29 06:32:53;;;;;;;19.65;2.03;;;;;;;;;;4278426;33;20077;-75
2023/05/29 06:35:23;;;;;;;18.62;7.80;;;;;;;;;;4283485;33;20168;-75
2023/05/29 06:37:49;;;;;;;12.45;2.75;;;;;;;;;;4279727;33;20053;-75
2023/05/29 06:40:16;;;;;;;6.53;1.60;;;;;;;;;;4274476;33;20080;-76
2023/05/29 06:42:45;;;;;;;8.38;2.45;;;;;;;;;;4275827;33;20083;-76
2023/05/29 06:45:13;;;;;;;2.97;1.60;;;;;;;;;;4263955;33;20054;-73
2023/05/29 06:47:40;;;;;;;4.20;1.80;;;;;;;;;;4263881;33;20049;-73
2023/05/29 06:50:07;;;;;;;2.35;1.60;;;;;;;;;;4264810;33;20503;-77
2023/05/29 06:52:34;;;;;;;6.53;1.87;;;;;;;;;;4243037;33;20043;-73
2023/05/29 06:55:03;;;;;;;8.40;2.05;;;;;;;;;;4248860;33;20510;-72
2023/05/29 06:57:30;;;;;;;6.03;1.40;;;;;;;;;;4238767;33;20054;-75
2023/05/29 07:00:05;;;;;;;10.80;1.48;;;;;;;;;;4238512;33;20406;-76
2023/05/29 07:02:32;;;;;;;6.60;1.45;;;;;;;;;;4232384;33;20055;-77
2023/05/29 07:04:58;;;;;;;2.97;1.12;;;;;;;;;;4232705;33;20081;-75
2023/05/29 07:07:25;;;;;;;9.40;1.25;;;;;;;;;;4232098;33;20072;-77
2023/05/29 07:09:51;;;;;;;1.05;1.05;;;;;;;;;;4228526;33;21006;-76
2023/05/29 07:12:18;;;;;;;7.28;1.40;;;;;;;;;;4233803;33;20062;-75
2023/05/29 07:14:45;;;;;;;8.45;1.70;;;;;;;;;;4243121;33;20050;-76
2023/05/29 07:17:12;;;;;;;2.97;1.92;;;;;;;;;;4240778;33;20072;-76
2023/05/29 07:19:38;;;;;;;6.18;1.12;;;;;;;;;;4246200;33;20053;-75
2023/05/29 07:22:05;;;;;;;16.98;1.58;;;;;;;;;;4250797;33;20087;-75
2023/05/29 07:24:31;;;;;;;1.17;1.15;;;;;;;;;;4277872;33;20071;-76
2023/05/29 07:26:58;;;;;;;2.60;1.75;;;;;;;;;;4281544;33;20110;-76
2023/05/29 07:29:24;;;;;;;3.87;1.30;;;;;;;;;;4281278;33;20081;-77
2023/05/29 07:31:51;;;;;;;2.10;1.42;;;;;;;;;;4279490;33;20390;-77
2023/05/29 07:34:18;;;;;;;12.13;1.50;;;;;;;;;;4281723;33;20860;-79
2023/05/29 07:36:58;;;;;;;2.08;1.58;;;;;;;;;;4281232;33;20056;-77
2023/05/29 07:39:24;;;;;;;4.35;1.27;;;;;;;;;;4280710;33;20052;-78
2023/05/29 07:41:50;;;;;;;3.22;1.37;;;;;;;;;;4279794;33;20062;-77
2023/05/29 07:44:17;;;;;;;3.75;1.65;;;;;;;;;;4281429;33;20079;-75
2023/05/29 07:46:43;;;;;;;11.60;1.77;;;;;;;;;;4281358;33;20053;-76
2023/05/29 07:49:12;;;;;;;4.87;1.80;;;;;;;;;;4278849;33;20418;-77
2023/05/29 07:51:38;;;;;;;1.30;1.20;;;;;;;;;;4276992;33;20077;-74
2023/05/29 07:54:06;;;;;;;3.10;1.87;;;;;;;;;;4278272;33;20192;-77
2023/05/29 07:56:33;;;;;;;6.70;1.40;;;;;;;;;;4277829;33;20475;-76
2023/05/29 07:59:00;;;;;;;9.57;2.05;;;;;;;;;;4277344;33;20045;-77
2023/05/29 08:01:28;;;;;;;4.43;1.58;;;;;;;;;;4281142;33;20104;-73
2023/05/29 08:03:54;;;;;;;3.20;1.25;;;;;;;;;;4285010;33;20237;-77
2023/05/29 08:06:22;;;;;;;11.85;1.87;;;;;;;;;;4283002;33;20082;-75
2023/05/29 08:08:48;;;;;;;1.20;1.10;;;;;;;;;;4287034;33;20041;-76
2023/05/29 08:11:15;;;;;;;4.32;1.20;;;;;;;;;;4290704;33;20116;-76
2023/05/29 08:13:41;;;;;;;3.78;1.60;;;;;;;;;;4291447;33;20061;-71
2023/05/29 08:16:08;;;;;;;1.62;1.50;;;;;;;;;;4264209;33;20815;-74
2023/05/29 08:18:36;;;;;;;7.97;1.30;;;;;;;;;;4248545;33;20540;-74
2023/05/29 08:21:02;;;;;;;1.42;1.33;;;;;;;;;;4250179;33;20076;-75
2023/05/29 08:23:28;;;;;;;4.50;1.50;;;;;;;;;;4249957;33;20384;-74
2023/05/29 08:25:55;;;;;;;2.22;1.30;;;;;;;;;;4258088;33;20444;-74
2023/05/29 08:28:21;;;;;;;6.47;1.52;;;;;;;;;;4259537;33;21017;-74
2023/05/29 08:30:47;;;;;;;7.00;1.23;;;;;;;;;;4260803;33;20445;-74
2023/05/29 08:33:14;;;;;;;5.00;1.50;;;;;;;;;;4254916;33;20071;-75
2023/05/29 08:35:41;;;;;;;1.17;1.15;;;;;;;;;;4255768;33;20042;-71
2023/05/29 08:38:07;;;;;;;9.85;1.55;;;;;;;;;;4254241;33;20056;-74
2023/05/29 08:40:33;;;;;;;6.43;1.33;;;;;;;;;;4252027;33;20215;-74
2023/05/29 08:43:02;;;;;;;1.50;1.40;;;;;;;;;;4241969;33;20883;-75
2023/05/29 08:45:28;;;;;;;4.30;1.37;;;;;;;;;;4238199;33;20064;-76
2023/05/29 08:47:57;;;;;;;6.25;2.00;;;;;;;;;;4269016;33;20050;-73
2023/05/29 08:50:24;;;;;;;2.28;1.02;;;;;;;;;;4266240;33;20079;-73
2023/05/29 08:52:50;;;;;;;4.03;1.27;;;;;;;;;;4266770;33;20251;-74
2023/05/29 08:55:17;;;;;;;11.68;1.50;;;;;;;;;;4264306;33;20064;-76
2023/05/29 08:57:43;;;;;;;4.65;1.60;;;;;;;;;;4258100;33;20038;-72
2023/05/29 09:00:19;;;;;;;2.58;1.40;;;;;;;;;;4265010;33;20045;-76
2023/05/29 09:02:46;;;;;;;1.60;1.48;;;;;;;;;;4264746;33;20365;-74
2023/05/29 09:05:12;;;;;;;2.28;1.15;;;;;;;;;;4266249;33;20053;-74
2023/05/29 09:07:39;;;;;;;9.23;1.67;;;;;;;;;;4264973;33;20045;-74
2023/05/29 09:10:06;;;;;;;2.15;1.00;;;;;;;;;;4263488;33;20104;-75
2023/05/29 09:12:33;;;;;;;9.65;1.30;;;;;;;;;;4265736;33;20482;-75
2023/05/29 09:15:00;;;;;;;6.57;1.40;;;;;;;;;;4265921;33;20046;-74
2023/05/29 09:17:30;;;;;;;4.22;1.52;;;;;;;;;;4265523;33;20076;-75
2023/05/29 09:19:56;;;;;;;4.12;1.83;;;;;;;;;;4263081;33;20049;-74
2023/05/29 09:22:22;;;;;;;4.18;1.67;;;;;;;;;;4277834;33;20141;-74
2023/05/29 09:24:50;;;;;;;2.20;1.30;;;;;;;;;;4280578;33;20167;-73
2023/05/29 09:27:17;;;;;;;10.35;1.75;;;;;;;;;;4280367;33;20071;-74
2023/05/29 09:29:44;;;;;;;1.08;1.00;;;;;;;;;;4278601;33;20889;-73
2023/05/29 09:32:14;;;;;;;1.42;1.15;;;;;;;;;;4279640;33;20049;-74
2023/05/29 09:34:41;;;;;;;3.28;1.33;;;;;;;;;;4277569;33;20166;-74
2023/05/29 09:37:08;;;;;;;2.28;1.20;;;;;;;;;;4279163;33;20033;-75
2023/05/29 09:39:41;;;;;;;4.03;1.40;;;;;;;;;;4278012;33;20059;-72
2023/05/29 09:42:06;;;;;;;;;;;;;;;;;;4280450;33;20248;-74
2023/05/29 09:44:33;;;;;;;3.37;1.60;;;;;;;;;;4279522;33;19940;-74
2023/05/29 09:46:59;;;;;;;3.10;1.30;;;;;;;;;;4279088;33;20053;-74
2023/05/29 09:49:28;;;;;;;8.75;1.90;;;;;;;;;;4277939;33;20114;-73
2023/05/29 09:51:54;;;;;;;1.60;1.50;;;;;;;;;;4276061;33;20038;-73
2023/05/29 09:54:21;;;;;;;4.72;1.45;;;;;;;;;;4279815;33;20095;-75
2023/05/29 09:56:47;;;;;;;2.53;1.37;;;;;;;;;;4278128;33;20506;-76
2023/05/29 09:59:15;;;;;;;5.70;1.30;;;;;;;;;;4276952;33;20104;-75
2023/05/29 10:01:43;;;;;;;2.05;1.20;;;;;;;;;;4291185;33;20033;-74
2023/05/29 10:04:10;;;;;;;7.93;2.28;;;;;;;;;;4292153;33;20071;-75
2023/05/29 10:06:38;;;;;;;5.00;1.40;;;;;;;;;;4296860;33;20059;-74
2023/05/29 10:09:07;;;;;;;4.45;1.00;;;;;;;;;;4297041;33;20045;-75
2023/05/29 10:11:34;;;;;;;2.00;1.40;;;;;;;;;;4297205;33;20058;-74
2023/05/29 10:14:02;;;;;;;10.93;1.98;;;;;;;;;;4294667;33;20075;-75
2023/05/29 10:16:28;;;;;;;2.70;1.30;;;;;;;;;;4297317;33;20947;-73
2023/05/29 10:18:55;;;;;;;5.28;1.70;;;;;;;;;;4295650;33;20041;-74
2023/05/29 10:21:22;;;;;;;4.50;2.37;;;;;;;;;;4295734;33;20075;-73
2023/05/29 10:23:50;;;;;;;7.90;2.22;;;;;;;;;;4295281;33;20084;-71
2023/05/29 10:26:21;;;;;;;7.32;1.67;;;;;;;;;;4295769;33;20086;-74
2023/05/29 10:29:06;;;;;;;10.50;1.50;;;;;;;;;;4296467;33;20805;-75
2023/05/29 10:31:48;;;;;;;2.53;1.73;;;;;;;;;;4292707;33;20058;-74
2023/05/29 10:34:17;;;;;;;7.20;1.48;;;;;;;;;;4295141;33;20077;-73
2023/05/29 10:36:47;;;;;;;1.50;1.37;;;;;;;;;;4296374;33;20061;-75
2023/05/29 10:39:13;;;;;;;2.50;2.33;;;;;;;;;;4294424;33;20770;-74
2023/05/29 10:41:40;;;;;;;4.65;1.58;;;;;;;;;;4295405;33;20070;-75
2023/05/29 10:44:32;;;;;;;2.33;1.52;;;;;;;;;;4295758;33;20100;-76
2023/05/29 10:46:58;;;;;;;3.90;3.45;;;;;;;;;;4292096;33;20094;-73
2023/05/29 10:49:25;;;;;;;11.30;1.95;;;;;;;;;;4295385;33;20057;-73
2023/05/29 10:51:51;;;;;;;1.87;1.65;;;;;;;;;;4282969;33;20122;-73
2023/05/29 10:54:24;;;;;;;2.60;1.45;;;;;;;;;;4296221;33;20425;-74
2023/05/29 10:56:58;;;;;;;5.43;1.75;;;;;;;;;;4293183;33;20564;-75
2023/05/29 10:59:28;;;;;;;2.70;1.60;;;;;;;;;;4294350;33;20037;-76
2023/05/29 11:01:55;;;;;;;2.40;1.40;;;;;;;;;;4479700;28;20041;-74
2023/05/29 11:04:21;;;;;;;4.55;1.60;;;;;;;;;;4285822;33;20038;-71
2023/05/29 11:06:47;;;;;;;4.68;1.98;;;;;;;;;;4270726;33;20101;-74
2023/05/29 11:09:36;;;;;;;8.10;1.83;;;;;;;;;;4287551;33;20354;-74
2023/05/29 11:12:14;;;;;;;5.72;1.75;;;;;;;;;;4278841;33;20111;-73
2023/05/29 11:14:58;;;;;;;3.28;1.45;;;;;;;;;;4279309;33;20050;-76
2023/05/29 11:17:28;;;;;;;6.35;2.10;;;;;;;;;;4265190;33;20045;-75
2023/05/29 11:19:56;;;;;;;5.30;1.85;;;;;;;;;;4272941;33;20049;-76
2023/05/29 11:22:26;;;;;;;12.93;2.15;;;;;;;;;;4279881;33;20071;-73
2023/05/29 11:24:53;;;;;;;8.63;2.10;;;;;;;;;;4279123;33;20415;-74
2023/05/29 11:27:19;;;;;;;7.97;1.50;;;;;;;;;;4279691;33;20071;-74
2023/05/29 11:29:48;;;;;;;8.60;2.05;;;;;;;;;;4277558;33;20045;-72
2023/05/29 11:32:16;;;;;;;2.40;1.37;;;;;;;;;;4279893;33;20826;-74
2023/05/29 11:34:44;;;;;;;3.75;1.73;;;;;;;;;;4287624;33;20483;-74
2023/05/29 11:37:11;;;;;;;1.37;1.30;;;;;;;;;;4293047;33;20461;-74
2023/05/29 11:39:37;;;;;;;8.20;2.62;;;;;;;;;;4290888;33;20051;-72
2023/05/29 11:42:05;;;;;;;2.72;2.00;;;;;;;;;;4279657;33;20075;-75
2023/05/29 11:44:31;;;;;;;4.93;1.60;;;;;;;;;;4279655;33;20053;-73
2023/05/29 11:47:04;;;;;;;9.35;1.92;;;;;;;;;;4268468;33;20269;-73
2023/05/29 11:49:32;;;;;;;3.08;1.52;;;;;;;;;;4263933;33;20086;-71
2023/05/29 11:52:05;;;;;;;7.82;1.70;;;;;;;;;;4264121;33;20071;-74
2023/05/29 11:54:33;;;;;;;9.13;1.85;;;;;;;;;;4265122;33;20050;-74
2023/05/29 11:57:00;;;;;;;10.13;2.25;;;;;;;;;;4268760;33;20101;-76
2023/05/29 11:59:28;;;;;;;5.35;1.90;;;;;;;;;;4266637;33;20029;-71
2023/05/29 12:01:55;;;;;;;7.28;1.55;;;;;;;;;;4263691;33;20066;-72
2023/05/29 12:04:21;;;;;;;6.90;1.83;;;;;;;;;;4264614;33;20060;-74
2023/05/29 12:06:47;;;;;;;1.65;1.35;;;;;;;;;;4264517;33;20310;-75
2023/05/29 12:09:26;;;;;;;7.95;2.03;;;;;;;;;;4262547;33;20054;-75
2023/05/29 12:11:53;;;;;;;5.30;1.77;;;;;;;;;;4264940;33;20395;-75
2023/05/29 12:14:19;;;;;;;5.15;1.92;;;;;;;;;;4276684;33;20042;-74
2023/05/29 12:16:46;;;;;;;1.73;1.58;;;;;;;;;;4281316;33;20415;-74
2023/05/29 12:19:16;;;;;;;23.50;14.52;;;;;;;;;;4288097;33;20443;-77
2023/05/29 12:21:44;;;;;;;13.57;2.42;;;;;;;;;;4284413;33;20471;-82
2023/05/29 12:24:10;;;;;;;1.87;1.77;;;;;;;;;;4282893;33;20084;-75
2023/05/29 12:26:37;;;;;;;4.35;2.40;;;;;;;;;;4285138;33;20042;-84
2023/05/29 12:29:06;;;;;;;4.40;2.70;;;;;;;;;;4284026;33;20053;-84
2023/05/29 12:31:35;;;;;;;13.43;2.37;;;;;;;;;;4281648;33;20357;-75
2023/05/29 12:34:07;;;;;;;3.08;1.70;;;;;;;;;;4282078;33;20045;-83
2023/05/29 12:36:33;;;;;;;8.65;1.90;;;;;;;;;;4283761;33;20391;-83
2023/05/29 12:39:00;;;;;;;3.90;1.45;;;;;;;;;;4288401;33;20065;-88
2023/05/29 12:41:33;;;;;;;3.78;1.48;;;;;;;;;;4270374;33;20107;-83
2023/05/29 12:44:01;;;;;;;2.17;1.55;;;;;;;;;;4281882;33;20067;-84
2023/05/29 12:46:27;;;;;;;5.68;1.62;;;;;;;;;;4298730;33;20057;-79
2023/05/29 12:48:56;;;;;;;3.35;1.62;;;;;;;;;;4293375;33;20636;-79
2023/05/29 12:51:26;;;;;;;7.60;1.85;;;;;;;;;;4283557;33;20050;-79
2023/05/29 12:53:54;;;;;;;6.00;1.77;;;;;;;;;;4281894;33;20086;-77
2023/05/29 12:56:22;;;;;;;35.30;2.28;;;;;;;;;;4284106;33;20049;-83
2023/05/29 12:58:49;;;;;;;2.50;1.90;;;;;;;;;;4283961;33;20059;-81
2023/05/29 13:01:15;;;;;;;7.45;1.67;;;;;;;;;;4278223;33;20120;-81
2023/05/29 13:03:41;;;;;;;3.17;1.92;;;;;;;;;;4301561;33;20469;-73
2023/05/29 13:06:08;;;;;;;2.50;1.98;;;;;;;;;;4297757;33;20096;-85
2023/05/29 13:08:34;;;;;;;6.75;1.33;;;;;;;;;;4296103;33;20560;-78
2023/05/29 13:11:00;;;;;;;6.30;1.60;;;;;;;;;;4293926;33;20059;-77
2023/05/29 13:13:26;;;;;;;10.45;1.90;;;;;;;;;;4296332;33;20339;-79
2023/05/29 13:15:53;;;;;;;2.15;1.92;;;;;;;;;;4302951;33;20117;-74
2023/05/29 13:18:18;;;;;;;2.62;2.42;;;;;;;;;;4294230;33;20155;-83
2023/05/29 13:20:45;;;;;;;3.05;2.20;;;;;;;;;;4296129;33;20053;-80
2023/05/29 13:23:11;;;;;;;2.25;1.55;;;;;;;;;;4294313;33;20508;-83
2023/05/29 13:25:37;;;;;;;7.55;2.08;;;;;;;;;;4294913;33;20063;-82
2023/05/29 13:28:03;;;;;;;3.28;1.87;;;;;;;;;;4294826;33;20034;-75
2023/05/29 13:30:29;;;;;;;6.50;2.50;;;;;;;;;;4294749;33;20099;-86
2023/05/29 13:32:55;;;;;;;6.00;2.17;;;;;;;;;;4284087;33;20053;-79
2023/05/29 13:35:21;;;;;;;4.78;1.62;;;;;;;;;;4278091;33;20042;-78
2023/05/29 13:37:48;;;;;;;6.05;1.50;;;;;;;;;;4253293;33;20140;-76
2023/05/29 13:40:15;;;;;;;4.22;1.90;;;;;;;;;;4242529;33;20050;-81
2023/05/29 13:42:41;;;;;;;2.83;1.58;;;;;;;;;;4224683;33;20136;-76
2023/05/29 13:45:08;;;;;;;3.45;1.52;;;;;;;;;;4237016;33;20105;-83
2023/05/29 13:47:34;;;;;;;6.97;2.35;;;;;;;;;;4245199;33;20388;-80
2023/05/29 13:50:00;;;;;;;2.50;1.87;;;;;;;;;;4240725;33;20634;-83
2023/05/29 13:52:27;;;;;;;6.62;1.50;;;;;;;;;;4250634;33;20184;-83
2023/05/29 13:54:53;;;;;;;4.53;1.98;;;;;;;;;;4234349;33;20475;-84
2023/05/29 13:57:19;;;;;;;2.92;1.75;;;;;;;;;;4238452;33;20078;-81
2023/05/29 13:59:45;;;;;;;1.70;1.55;;;;;;;;;;4238559;33;20088;-81
2023/05/29 14:02:11;;;;;;;5.80;2.17;;;;;;;;;;4235708;33;20062;-79
2023/05/29 14:04:39;;;;;;;5.60;2.40;;;;;;;;;;4235954;33;20074;-82
2023/05/29 14:07:05;;;;;;;3.17;1.90;;;;;;;;;;4241728;33;20035;-79
2023/05/29 14:09:31;;;;;;;3.78;1.83;;;;;;;;;;4268619;33;20150;-79
2023/05/29 14:11:59;;;;;;;2.05;1.40;;;;;;;;;;4290957;33;20062;-82
2023/05/29 14:14:25;;;;;;;5.00;1.60;;;;;;;;;;4294929;33;20403;-79
2023/05/29 14:16:52;;;;;;;2.42;1.70;;;;;;;;;;4284624;33;20442;-74
2023/05/29 14:19:25;;;;;;;2.90;1.90;;;;;;;;;;4282568;33;20046;-77
2023/05/29 14:21:51;;;;;;;4.87;1.60;;;;;;;;;;4278030;33;20110;-79
2023/05/29 14:24:18;;;;;;;3.42;1.95;;;;;;;;;;4251853;33;20116;-77
2023/05/29 14:26:46;;;;;;;3.28;1.95;;;;;;;;;;4250603;33;20089;-78
2023/05/29 14:29:13;;;;;;;6.20;2.03;;;;;;;;;;4246224;33;20400;-77
2023/05/29 14:31:39;;;;;;;8.48;1.33;;;;;;;;;;4247458;33;20066;-76
2023/05/29 14:34:06;;;;;;;2.97;1.77;;;;;;;;;;4246901;33;20069;-81
2023/05/29 14:36:32;;;;;;;8.82;1.85;;;;;;;;;;4242988;33;20630;-79
2023/05/29 14:38:58;;;;;;;5.65;1.73;;;;;;;;;;4244130;33;21425;-77
2023/05/29 14:41:25;;;;;;;7.40;1.92;;;;;;;;;;4233400;33;20046;-75
2023/05/29 14:43:51;;;;;;;2.95;2.00;;;;;;;;;;4235056;33;20078;-79
2023/05/29 14:46:17;;;;;;;5.20;1.77;;;;;;;;;;4235537;33;20101;-79
2023/05/29 14:48:44;;;;;;;3.22;1.73;;;;;;;;;;4236681;33;20084;-86
2023/05/29 14:51:10;;;;;;;4.68;1.60;;;;;;;;;;4236528;33;20094;-74
2023/05/29 14:53:38;;;;;;;5.22;1.70;;;;;;;;;;4246633;33;20053;-88
2023/05/29 14:56:05;;;;;;;2.53;1.90;;;;;;;;;;4261085;33;20050;-85
2023/05/29 14:58:31;;;;;;;6.20;1.92;;;;;;;;;;4265071;33;20484;-82
2023/05/29 15:00:57;;;;;;;9.32;2.10;;;;;;;;;;4265311;33;20065;-87
2023/05/29 15:03:26;;;;;;;2.00;1.55;;;;;;;;;;4264257;33;20050;-74
2023/05/29 15:05:53;;;;;;;8.05;2.20;;;;;;;;;;4264534;33;20030;-84
2023/05/29 15:08:19;;;;;;;2.45;1.50;;;;;;;;;;4259869;33;20136;-83
2023/05/29 15:10:46;;;;;;;3.37;1.48;;;;;;;;;;4254718;33;20072;-83
2023/05/29 15:13:12;;;;;;;3.95;2.28;;;;;;;;;;4262152;33;20592;-84
2023/05/29 15:15:38;;;;;;;2.87;2.30;;;;;;;;;;4251980;33;20080;-74
2023/05/29 15:18:05;;;;;;;2.03;1.75;;;;;;;;;;4253765;33;20460;-81
2023/05/29 15:20:32;;;;;;;7.05;1.87;;;;;;;;;;4246262;33;20033;-80
2023/05/29 15:22:58;;;;;;;13.80;2.53;;;;;;;;;;4236900;33;20050;-83
2023/05/29 15:25:25;;;;;;;1.77;1.67;;;;;;;;;;4232796;33;20043;-80
2023/05/29 15:27:51;;;;;;;10.18;2.08;;;;;;;;;;4206158;34;20044;-75
2023/05/29 15:30:21;;;;;;;7.75;1.75;;;;;;;;;;4206711;34;20110;-83
2023/05/29 15:32:48;;;;;;;7.45;1.83;;;;;;;;;;4209198;34;20069;-85
2023/05/29 15:35:14;;;;;;;7.62;2.00;;;;;;;;;;4208246;34;20472;-86
2023/05/29 15:37:41;;;;;;;5.70;2.08;;;;;;;;;;4211457;34;20051;-75
2023/05/29 15:40:09;;;;;;;2.08;1.62;;;;;;;;;;4221388;33;20082;-82
2023/05/29 15:42:35;;;;;;;9.05;1.77;;;;;;;;;;4223310;33;20062;-77
2023/05/29 15:45:03;;;;;;;1.67;1.58;;;;;;;;;;4223671;33;20050;-83
2023/05/29 15:47:30;;;;;;;2.60;1.60;;;;;;;;;;4230882;33;20136;-84
2023/05/29 15:49:57;;;;;;;9.93;2.40;;;;;;;;;;4218767;34;20047;-78
2023/05/29 15:52:25;;;;;;;4.85;2.28;;;;;;;;;;4215398;34;20056;-88
2023/05/29 15:54:52;;;;;;;4.12;1.45;;;;;;;;;;4217280;34;20047;-82
2023/05/29 15:57:18;;;;;;;9.30;3.10;;;;;;;;;;4216336;34;20111;-85
2023/05/29 15:59:44;;;;;;;9.43;1.87;;;;;;;;;;4227077;33;20058;-85
2023/05/29 16:02:11;;;;;;;2.30;2.03;;;;;;;;;;4219885;33;20047;-85
2023/05/29 16:04:37;;;;;;;9.77;2.20;;;;;;;;;;4229982;33;20082;-84
2023/05/29 16:07:03;;;;;;;5.50;2.12;;;;;;;;;;4236323;33;20050;-84
2023/05/29 16:09:29;;;;;;;1.70;1.60;;;;;;;;;;4227496;33;20054;-84
2023/05/29 16:11:56;;;;;;;6.15;2.12;;;;;;;;;;4233299;33;20084;-75
2023/05/29 16:14:22;;;;;;;1.98;1.50;;;;;;;;;;4224002;33;20119;-73
2023/05/29 16:16:48;;;;;;;1.98;1.58;;;;;;;;;;4221646;34;20539;-80
2023/05/29 16:19:15;;;;;;;7.87;1.70;;;;;;;;;;4220170;34;20051;-80
2023/05/29 16:21:42;;;;;;;7.62;2.40;;;;;;;;;;4231088;33;20097;-81
2023/05/29 16:24:08;;;;;;;1.75;1.42;;;;;;;;;;4253425;33;20474;-77
2023/05/29 16:26:34;;;;;;;6.97;2.30;;;;;;;;;;4265775;33;20099;-78
2023/05/29 16:29:01;;;;;;;11.43;1.80;;;;;;;;;;4276625;33;20053;-81
2023/05/29 16:31:28;;;;;;;2.70;1.70;;;;;;;;;;4274117;33;20057;-78
2023/05/29 16:33:55;;;;;;;3.05;1.50;;;;;;;;;;4274067;33;20084;-82
2023/05/29 16:36:21;;;;;;;7.80;1.80;;;;;;;;;;4258573;33;20041;-86
2023/05/29 16:38:47;;;;;;;8.57;1.73;;;;;;;;;;4247630;33;20081;-75
2023/05/29 16:41:14;;;;;;;22.98;2.30;;;;;;;;;;4253846;33;20080;-83